Time;durP1;ratioP1;P1;durP2;ratioP2;P2;SDS_P1;SDS_P2;PMS_P1;PMS_P2;Temp;Humidity;BMP_temperature;BMP_pressure;BME280_temperature;BME280_humidity;BME280_pressure;Samples;Min_cycle;Max_cycle;Signal;HPM_P1;HPM_P2
2021/09/05 00:01:06;;;;;;;30.93;13.23;;;7.50;99.90;;;;;;4865437;29;20304;-94
2021/09/05 00:03:32;;;;;;;30.93;12.13;;;;;;;;;;4868153;29;20190;-94
2021/09/05 00:06:00;;;;;;;22.17;12.53;;;7.40;99.90;;;;;;4884435;29;20246;-94
2021/09/05 00:08:26;;;;;;;31.63;13.57;;;;;;;;;;4868240;29;20237;-94
2021/09/05 00:10:52;;;;;;;26.37;12.37;;;;;;;;;;4883831;29;20178;-94
2021/09/05 00:13:18;;;;;;;24.13;12.47;;;;;;;;;;4866161;29;20237;-94
2021/09/05 00:15:44;;;;;;;26.93;13.47;;;;;;;;;;4866406;29;20644;-94
2021/09/05 00:18:10;;;;;;;29.23;12.37;;;;;;;;;;4851854;29;20238;-95
2021/09/05 00:20:36;;;;;;;25.40;14.13;;;;;;;;;;4853537;29;20707;-93
2021/09/05 00:23:03;;;;;;;28.70;14.83;;;7.10;99.90;;;;;;4875327;29;20258;-91
2021/09/05 00:25:30;;;;;;;31.60;14.63;;;7.00;99.90;;;;;;4867776;29;20261;-90
2021/09/05 00:27:57;;;;;;;30.60;14.43;;;;;;;;;;4869795;29;20217;-91
2021/09/05 00:30:23;;;;;;;27.70;13.87;;;;;;;;;;4884165;29;20197;-91
2021/09/05 00:32:51;;;;;;;27.87;14.83;;;7.10;99.90;;;;;;4884364;29;20185;-92
2021/09/05 00:35:18;;;;;;;27.43;14.83;;;;;;;;;;4877095;29;20271;-95
2021/09/05 00:37:44;;;;;;;27.37;14.53;;;;;;;;;;4867829;29;20288;-94
2021/09/05 00:40:10;;;;;;;26.93;13.30;;;7.10;99.90;;;;;;4868285;29;20182;-94
2021/09/05 00:42:36;;;;;;;29.20;14.23;;;;;;;;;;4884765;29;20190;-93
2021/09/05 00:45:03;;;;;;;29.10;14.43;;;7.00;99.90;;;;;;4868599;29;20186;-93
2021/09/05 00:47:29;;;;;;;27.10;14.03;;;;;;;;;;4867558;29;20213;-94
2021/09/05 00:49:55;;;;;;;29.40;14.50;;;;;;;;;;4864614;29;20198;-94
2021/09/05 00:52:21;;;;;;;27.53;13.80;;;7.00;99.90;;;;;;4864152;29;20214;-92
2021/09/05 00:54:47;;;;;;;29.93;13.77;;;7.00;99.90;;;;;;4878295;29;20186;-94
2021/09/05 00:57:14;;;;;;;26.77;13.40;;;7.00;99.90;;;;;;4886341;29;20190;-93
2021/09/05 00:59:42;;;;;;;25.40;14.03;;;;;;;;;;4885274;29;20198;-94
2021/09/05 01:02:08;;;;;;;31.30;14.40;;;;;;;;;;4855351;29;20234;-95
2021/09/05 01:04:34;;;;;;;26.37;14.37;;;;;;;;;;4873437;29;20253;-94
2021/09/05 01:07:00;;;;;;;26.80;13.60;;;;;;;;;;4853961;29;20577;-95
2021/09/05 01:09:28;;;;;;;24.80;13.67;;;6.90;99.90;;;;;;4869881;29;20198;-94
2021/09/05 01:11:54;;;;;;;24.50;13.90;;;;;;;;;;4854061;29;20213;-94
2021/09/05 01:14:20;;;;;;;24.03;13.13;;;6.90;99.90;;;;;;4851947;29;20189;-94
2021/09/05 01:16:46;;;;;;;26.50;14.17;;;;;;;;;;4864545;29;20330;-94
2021/09/05 01:19:14;;;;;;;27.77;14.77;;;6.90;99.90;;;;;;4864774;29;20197;-96
2021/09/05 01:21:41;;;;;;;25.80;14.20;;;6.90;99.90;;;;;;4864485;29;20213;-95
2021/09/05 01:24:07;;;;;;;26.70;13.70;;;6.90;99.90;;;;;;4864335;29;20192;-95
2021/09/05 01:26:37;;;;;;;24.37;13.10;;;6.80;99.90;;;;;;4881000;29;20210;-94
2021/09/05 01:29:04;;;;;;;29.67;14.53;;;7.00;99.90;;;;;;4864636;29;20238;-94
2021/09/05 01:31:56;;;;;;;29.80;13.90;;;6.80;99.90;;;;;;4849739;29;20186;-95
2021/09/05 01:34:23;;;;;;;28.23;13.97;;;6.80;99.90;;;;;;4883170;29;20639;-96
2021/09/05 01:36:51;;;;;;;28.33;14.30;;;6.80;99.90;;;;;;4865737;29;20662;-95
2021/09/05 01:39:19;;;;;;;32.20;15.40;;;6.80;99.90;;;;;;4864474;29;20241;-94
2021/09/05 01:41:45;;;;;;;28.53;15.07;;;6.80;99.90;;;;;;4864189;29;20186;-94
2021/09/05 01:44:14;;;;;;;26.50;14.13;;;6.80;99.90;;;;;;4864128;29;20189;-93
2021/09/05 01:46:40;;;;;;;24.17;12.83;;;;;;;;;;4880523;29;20210;-94
2021/09/05 01:49:06;;;;;;;23.40;13.80;;;;;;;;;;4864031;29;20193;-95
2021/09/05 01:51:33;;;;;;;26.30;13.67;;;;;;;;;;4863530;29;20192;-95
2021/09/05 01:53:59;;;;;;;22.53;12.97;;;;;;;;;;4864299;29;20695;-94
2021/09/05 01:56:25;;;;;;;27.50;14.17;;;;;;;;;;4864397;29;20601;-94
2021/09/05 01:58:52;;;;;;;25.57;14.10;;;;;;;;;;4849655;29;20214;-93
2021/09/05 02:01:18;;;;;;;27.77;13.13;;;;;;;;;;4850421;29;20190;-94
2021/09/05 02:03:46;;;;;;;28.87;13.83;;;;;;;;;;4865707;29;20651;-95
2021/09/05 02:06:12;;;;;;;26.03;14.07;;;;;;;;;;4866858;29;20186;-95
2021/09/05 02:08:38;;;;;;;29.40;13.43;;;;;;;;;;4866472;29;20197;-95
2021/09/05 02:11:04;;;;;;;25.93;14.73;;;;;;;;;;4894636;29;20170;-94
2021/09/05 02:13:31;;;;;;;27.63;13.87;;;;;;;;;;4903121;29;20222;-94
2021/09/05 02:15:57;;;;;;;26.10;14.67;;;;;;;;;;4879001;29;20198;-95
2021/09/05 02:18:23;;;;;;;27.43;14.77;;;;;;;;;;4869420;29;20181;-95
2021/09/05 02:20:49;;;;;;;29.13;14.37;;;;;;;;;;4881509;29;20170;-94
2021/09/05 02:23:15;;;;;;;26.73;13.60;;;;;;;;;;4894568;29;20254;-95
2021/09/05 02:25:41;;;;;;;31.10;14.10;;;;;;;;;;4869370;29;20190;-95
2021/09/05 02:28:07;;;;;;;25.00;13.43;;;;;;;;;;4886869;29;20205;-95
2021/09/05 02:30:35;;;;;;;26.13;13.67;;;;;;;;;;4876305;29;20201;-96
2021/09/05 02:33:01;;;;;;;30.97;14.00;;;6.40;99.90;;;;;;4896051;29;20238;-95
2021/09/05 02:35:28;;;;;;;27.30;13.97;;;;;;;;;;4897533;29;20207;-94
2021/09/05 02:37:54;;;;;;;31.53;13.83;;;;;;;;;;4878447;29;20189;-95
2021/09/05 02:40:20;;;;;;;25.10;13.70;;;;;;;;;;4867030;29;20193;-95
2021/09/05 02:42:46;;;;;;;26.13;14.23;;;;;;;;;;4851503;29;20201;-94
2021/09/05 02:45:12;;;;;;;26.17;14.03;;;;;;;;;;4867259;29;20194;-94
2021/09/05 02:47:38;;;;;;;24.40;13.47;;;;;;;;;;4868669;29;20217;-96
2021/09/05 02:50:05;;;;;;;25.83;14.17;;;6.30;99.90;;;;;;4868133;29;20185;-94
2021/09/05 02:52:31;;;;;;;23.87;12.70;;;;;;;;;;4866269;29;20197;-94
2021/09/05 02:54:57;;;;;;;25.43;13.37;;;;;;;;;;4883373;29;20174;-95
2021/09/05 02:57:23;;;;;;;30.07;14.13;;;;;;;;;;4883252;29;20190;-95
2021/09/05 02:59:49;;;;;;;66.37;26.27;;;;;;;;;;4866830;29;20197;-95
2021/09/05 03:02:15;;;;;;;36.27;18.63;;;;;;;;;;4870892;29;20190;-95
2021/09/05 03:04:42;;;;;;;42.43;19.00;;;;;;;;;;4867383;29;20192;-96
2021/09/05 03:07:08;;;;;;;35.03;17.50;;;;;;;;;;4866981;29;20271;-96
2021/09/05 03:09:34;;;;;;;30.87;15.77;;;;;;;;;;4888754;29;20258;-94
2021/09/05 03:12:00;;;;;;;34.17;15.37;;;;;;;;;;4888560;29;20190;-96
2021/09/05 03:14:26;;;;;;;31.73;15.27;;;;;;;;;;4881876;29;20280;-96
2021/09/05 03:16:52;;;;;;;30.57;15.50;;;;;;;;;;4867761;29;20190;-96
2021/09/05 03:19:18;;;;;;;27.93;14.83;;;;;;;;;;4868308;29;20186;-96
2021/09/05 03:21:46;;;;;;;30.67;14.67;;;;;;;;;;4853529;29;20242;-96
2021/09/05 03:24:15;;;;;;;26.00;14.23;;;6.10;99.90;;;;;;4853942;29;20198;-96
2021/09/05 03:26:41;;;;;;;25.73;12.67;;;;;;;;;;4853454;29;20320;-96
2021/09/05 03:29:07;;;;;;;26.97;14.23;;;;;;;;;;4852459;29;20197;-96
2021/09/05 03:31:33;;;;;;;26.97;13.43;;;;;;;;;;4869831;29;20218;-96
2021/09/05 03:34:01;;;;;;;27.07;15.67;;;;;;;;;;4874414;29;20190;-96
2021/09/05 03:36:27;;;;;;;31.47;16.03;;;;;;;;;;4869357;29;20182;-96
2021/09/05 03:38:56;;;;;;;26.43;15.73;;;;;;;;;;4870311;29;20193;-96
2021/09/05 03:41:23;;;;;;;26.40;15.67;;;;;;;;;;4888356;29;20186;-96
2021/09/05 03:43:49;;;;;;;23.13;14.20;;;;;;;;;;4876883;29;20593;-96
2021/09/05 03:46:15;;;;;;;24.43;14.00;;;;;;;;;;4879186;29;20178;-96
2021/09/05 03:48:41;;;;;;;31.17;15.60;;;;;;;;;;4876728;29;20698;-95
2021/09/05 03:51:07;;;;;;;26.33;14.17;;;;;;;;;;4876779;29;20182;-95
2021/09/05 03:53:33;;;;;;;26.80;14.27;;;;;;;;;;4876177;29;20262;-96
2021/09/05 03:55:59;;;;;;;32.53;14.10;;;;;;;;;;4883944;29;20186;-96
2021/09/05 03:58:25;;;;;;;27.07;14.50;;;;;;;;;;4873319;29;20194;-96
2021/09/05 04:00:55;;;;;;;22.57;13.80;;;;;;;;;;4876032;29;20254;-96
2021/09/05 04:03:23;;;;;;;26.53;15.10;;;;;;;;;;4887170;29;20182;-95
2021/09/05 04:05:49;;;;;;;26.40;13.33;;;;;;;;;;4885992;29;20178;-96
2021/09/05 04:08:16;;;;;;;26.83;13.53;;;;;;;;;;4887143;29;20261;-95
2021/09/05 04:10:42;;;;;;;22.50;13.47;;;;;;;;;;4855517;29;20194;-96
2021/09/05 04:13:14;;;;;;;35.70;13.60;;;6.10;99.90;;;;;;4875764;29;20186;-96
2021/09/05 04:15:42;;;;;;;27.87;14.83;;;;;;;;;;4892876;29;20166;-96
2021/09/05 04:18:09;;;;;;;25.20;13.53;;;;;;;;;;4887748;29;20186;-96
2021/09/05 04:20:35;;;;;;;25.90;14.30;;;;;;;;;;4869659;29;20624;-96
2021/09/05 04:23:01;;;;;;;25.70;13.63;;;;;;;;;;4867956;29;20182;-95
2021/09/05 04:25:27;;;;;;;25.93;13.80;;;;;;;;;;4866884;29;20246;-96
2021/09/05 04:27:53;;;;;;;25.30;13.60;;;;;;;;;;4882403;29;20209;-95
2021/09/05 04:30:22;;;;;;;24.30;13.63;;;6.40;99.90;;;;;;4882006;29;20579;-96
2021/09/05 04:32:48;;;;;;;31.03;14.00;;;;;;;;;;4865224;29;20289;-95
2021/09/05 04:35:14;;;;;;;26.30;13.00;;;;;;;;;;4866262;29;20220;-96
2021/09/05 04:37:40;;;;;;;22.40;12.20;;;;;;;;;;4865870;29;20189;-96
2021/09/05 04:40:07;;;;;;;26.37;14.03;;;6.60;99.90;;;;;;4849258;29;20205;-95
2021/09/05 04:42:35;;;;;;;22.80;13.50;;;;;;;;;;4864902;29;20185;-94
2021/09/05 04:45:01;;;;;;;24.70;13.10;;;;;;;;;;4882048;29;20182;-94
2021/09/05 04:47:27;;;;;;;23.97;12.83;;;;;;;;;;4881739;29;20210;-95
2021/09/05 04:49:53;;;;;;;20.40;12.37;;;;;;;;;;4882324;29;20217;-95
2021/09/05 04:52:20;;;;;;;22.97;13.17;;;;;;;;;;4866473;29;20193;-95
2021/09/05 04:54:46;;;;;;;21.47;13.10;;;;;;;;;;4865676;29;20209;-94
2021/09/05 04:57:12;;;;;;;22.87;12.97;;;;;;;;;;4850483;29;20190;-94
2021/09/05 04:59:38;;;;;;;24.37;12.57;;;;;;;;;;4866047;29;20205;-94
2021/09/05 05:02:04;;;;;;;21.27;12.90;;;;;;;;;;4882234;29;20745;-94
2021/09/05 05:04:30;;;;;;;25.47;13.00;;;;;;;;;;4864403;29;20211;-94
2021/09/05 05:06:56;;;;;;;23.83;13.20;;;;;;;;;;4883124;29;20217;-94
2021/09/05 05:09:22;;;;;;;27.37;13.00;;;;;;;;;;4850303;29;20205;-94
2021/09/05 05:11:48;;;;;;;25.23;13.73;;;;;;;;;;4864670;29;20186;-94
2021/09/05 05:14:14;;;;;;;24.23;12.87;;;;;;;;;;4864547;29;20193;-95
2021/09/05 05:16:40;;;;;;;21.80;12.17;;;7.80;99.90;;;;;;4864771;29;20254;-93
2021/09/05 05:19:06;;;;;;;20.80;11.87;;;;;;;;;;4866241;29;20182;-95
2021/09/05 05:21:40;;;;;;;20.57;11.57;;;8.00;99.90;;;;;;4856382;29;20249;-96
2021/09/05 05:24:06;;;;;;;29.13;13.10;;;8.60;99.90;;;;;;4886428;29;20189;-95
2021/09/05 05:26:32;;;;;;;20.43;12.70;;;6.40;99.90;;;;;;4902180;29;20216;-95
2021/09/05 05:28:58;;;;;;;17.13;10.13;;;;;;;;;;4868448;29;20190;-95
2021/09/05 05:31:27;;;;;;;20.70;10.67;;;;;;;;;;4873145;29;20249;-95
2021/09/05 05:33:53;;;;;;;20.93;12.00;;;;;;;;;;4856369;29;20190;-92
2021/09/05 05:36:19;;;;;;;20.83;10.47;;;;;;;;;;4866534;29;20185;-94
2021/09/05 05:38:45;;;;;;;20.93;12.30;;;;;;;;;;4878720;29;20218;-94
2021/09/05 05:41:13;;;;;;;24.50;12.97;;;;;;;;;;4903686;29;20163;-92
2021/09/05 05:43:39;;;;;;;21.70;12.33;;;;;;;;;;4896541;29;20209;-93
2021/09/05 05:46:05;;;;;;;22.93;12.07;;;;;;;;;;4886294;29;20190;-94
2021/09/05 05:48:31;;;;;;;23.27;11.40;;;;;;;;;;4899455;29;20233;-91
2021/09/05 05:50:57;;;;;;;22.63;14.57;;;;;;;;;;4890598;29;20182;-90
2021/09/05 05:53:23;;;;;;;22.33;11.67;;;;;;;;;;4859886;29;20265;-90
2021/09/05 05:55:49;;;;;;;15.60;9.97;;;9.60;99.90;;;;;;4860721;29;20198;-87
2021/09/05 05:58:15;;;;;;;18.47;10.50;;;9.70;99.90;;;;;;4854333;29;20202;-87
2021/09/05 06:00:42;;;;;;;21.53;10.40;;;9.80;99.90;;;;;;4875686;29;20182;-87
2021/09/05 06:03:08;;;;;;;18.50;10.03;;;9.90;99.90;;;;;;4865610;29;20206;-88
2021/09/05 06:05:34;;;;;;;21.77;10.40;;;9.90;99.90;;;;;;4865537;29;20228;-86
2021/09/05 06:08:03;;;;;;;16.33;9.40;;;10.00;99.90;;;;;;4882113;29;20277;-88
2021/09/05 06:10:30;;;;;;;14.17;8.07;;;10.40;99.90;;;;;;4887042;29;20229;-90
2021/09/05 06:12:56;;;;;;;12.43;6.87;;;10.20;99.90;;;;;;4887032;29;20258;-90
2021/09/05 06:15:22;;;;;;;12.40;6.73;;;;;;;;;;4866561;29;20193;-91
2021/09/05 06:17:49;;;;;;;12.57;6.73;;;10.50;99.90;;;;;;4866549;29;20236;-89
2021/09/05 06:20:15;;;;;;;31.37;9.97;;;10.60;99.90;;;;;;4850394;29;20695;-90
2021/09/05 06:22:40;;;;;;;12.47;6.10;;;10.70;99.90;;;;;;4866816;29;20186;-93
2021/09/05 06:25:06;;;;;;;9.33;4.70;;;11.00;99.90;;;;;;4865973;29;20659;-90
2021/09/05 06:27:32;;;;;;;8.30;4.25;;;11.20;99.90;;;;;;4850736;29;20739;-91
2021/09/05 06:30:00;;;;;;;12.03;5.80;;;11.40;99.90;;;;;;4865763;29;20241;-90
2021/09/05 06:32:27;;;;;;;8.37;5.10;;;11.40;99.90;;;;;;4850623;29;20610;-89
2021/09/05 06:34:52;;;;;;;8.73;4.57;;;11.40;99.90;;;;;;4882655;29;20182;-90
2021/09/05 06:37:18;;;;;;;7.00;4.40;;;;;;;;;;4881542;29;20186;-92
2021/09/05 06:39:44;;;;;;;9.13;5.37;;;11.60;99.90;;;;;;4884768;29;20182;-88
2021/09/05 06:42:10;;;;;;;13.02;5.60;;;11.60;99.90;;;;;;4867193;29;20518;-89
2021/09/05 06:44:36;;;;;;;8.00;4.55;;;11.60;99.90;;;;;;4865679;29;20648;-89
2021/09/05 06:47:02;;;;;;;8.43;4.63;;;11.70;99.90;;;;;;4865333;29;20262;-90
2021/09/05 06:49:28;;;;;;;9.82;4.85;;;11.80;99.90;;;;;;4866146;29;20198;-85
2021/09/05 06:51:54;;;;;;;8.95;3.58;;;11.80;99.90;;;;;;4864821;29;20186;-89
2021/09/05 06:54:19;;;;;;;5.93;3.40;;;11.90;99.90;;;;;;4863397;29;20266;-86
2021/09/05 06:56:45;;;;;;;8.18;5.13;;;12.10;99.90;;;;;;4844747;29;20190;-88
2021/09/05 06:59:11;;;;;;;5.43;3.25;;;12.30;99.90;;;;;;4854372;29;20186;-88
2021/09/05 07:01:36;;;;;;;5.13;2.90;;;12.40;99.90;;;;;;4847491;29;20209;-87
2021/09/05 07:04:02;;;;;;;5.25;3.08;;;12.40;99.90;;;;;;4870431;29;20187;-88
2021/09/05 07:06:28;;;;;;;5.78;3.03;;;12.40;99.90;;;;;;4876509;29;20190;-88
2021/09/05 07:08:53;;;;;;;3.65;2.67;;;12.50;99.90;;;;;;4878487;29;20183;-87
2021/09/05 07:11:19;;;;;;;3.85;2.67;;;12.60;99.90;;;;;;4867936;29;20182;-90
2021/09/05 07:13:45;;;;;;;3.88;2.58;;;12.80;99.90;;;;;;4858672;29;20253;-89
2021/09/05 07:16:10;;;;;;;6.35;2.50;;;12.90;99.90;;;;;;4868968;29;20208;-88
2021/09/05 07:18:36;;;;;;;3.67;2.47;;;13.10;99.90;;;;;;4870718;29;20185;-87
2021/09/05 07:21:02;;;;;;;5.07;2.63;;;13.20;99.90;;;;;;4856881;29;20221;-88
2021/09/05 07:23:28;;;;;;;6.72;3.92;;;13.30;99.90;;;;;;4879221;29;20186;-88
2021/09/05 07:26:02;;;;;;;7.68;2.20;;;13.30;99.90;;;;;;4866797;29;20203;-89
2021/09/05 07:28:32;;;;;;;3.72;2.17;;;13.40;99.90;;;;;;4865594;29;20222;-86
2021/09/05 07:30:59;;;;;;;3.35;2.45;;;13.40;99.90;;;;;;4862235;29;20268;-89
2021/09/05 07:33:25;;;;;;;4.45;1.77;;;13.50;99.90;;;;;;4874091;29;20187;-86
2021/09/05 07:35:50;;;;;;;5.47;2.30;;;13.60;99.90;;;;;;4855452;29;20205;-86
2021/09/05 07:38:16;;;;;;;4.47;1.98;;;13.70;99.90;;;;;;4870268;29;20186;-87
2021/09/05 07:40:42;;;;;;;4.10;1.95;;;13.70;99.90;;;;;;4870435;29;20178;-88
2021/09/05 07:43:07;;;;;;;2.83;1.80;;;13.80;99.90;;;;;;4862393;29;20190;-88
2021/09/05 07:45:34;;;;;;;4.15;1.55;;;;;;;;;;4868950;29;20182;-86
2021/09/05 07:48:00;;;;;;;2.30;1.45;;;13.90;99.90;;;;;;4847623;29;20223;-89
2021/09/05 07:50:26;;;;;;;2.45;1.60;;;13.90;99.90;;;;;;4845020;29;20199;-86
2021/09/05 07:52:52;;;;;;;3.03;1.80;;;14.00;99.90;;;;;;4847059;29;20602;-89
2021/09/05 07:55:18;;;;;;;4.75;1.70;;;14.10;99.90;;;;;;4847368;29;20186;-88
2021/09/05 07:57:44;;;;;;;2.85;1.80;;;;;;;;;;4861419;29;20225;-88
2021/09/05 08:00:10;;;;;;;4.90;2.08;;;14.20;99.90;;;;;;4866874;29;20281;-89
2021/09/05 08:02:35;;;;;;;3.58;1.63;;;14.20;99.90;;;;;;4872793;29;20214;-89
2021/09/05 08:05:01;;;;;;;5.45;1.60;;;14.30;99.90;;;;;;4874801;29;20517;-89
2021/09/05 08:07:27;;;;;;;2.78;1.40;;;14.40;99.90;;;;;;4838361;29;20209;-88
2021/09/05 08:09:52;;;;;;;1.48;1.25;;;14.40;99.90;;;;;;4862268;29;20190;-90
2021/09/05 08:12:18;;;;;;;2.58;1.30;;;14.40;99.90;;;;;;4861387;29;20204;-90
2021/09/05 08:14:44;;;;;;;4.28;1.65;;;14.40;99.90;;;;;;4848411;29;20189;-90
2021/09/05 08:17:10;;;;;;;2.60;1.42;;;14.40;99.90;;;;;;4864583;29;20190;-89
2021/09/05 08:19:36;;;;;;;2.10;1.10;;;;;;;;;;4880126;29;20178;-90
2021/09/05 08:22:02;;;;;;;4.45;1.08;;;14.60;99.90;;;;;;4881139;29;20186;-91
2021/09/05 08:24:28;;;;;;;2.58;1.33;;;14.50;99.90;;;;;;4865083;29;20206;-90
2021/09/05 08:26:53;;;;;;;1.42;1.02;;;14.50;99.90;;;;;;4880680;29;20217;-90
2021/09/05 08:29:19;;;;;;;2.00;1.30;;;;;;;;;;4882193;29;20221;-91
2021/09/05 08:31:45;;;;;;;1.90;1.42;;;14.70;99.90;;;;;;4878924;29;20190;-89
2021/09/05 08:34:11;;;;;;;2.90;1.25;;;14.80;99.90;;;;;;4855428;29;20713;-90
2021/09/05 08:36:36;;;;;;;2.80;1.58;;;14.90;99.90;;;;;;4862136;29;20198;-89
2021/09/05 08:39:02;;;;;;;1.77;0.95;;;15.00;99.90;;;;;;4872085;29;20202;-90
2021/09/05 08:41:28;;;;;;;1.48;1.10;;;12.50;99.90;;;;;;4877685;29;20200;-88
2021/09/05 08:43:54;;;;;;;1.55;1.10;;;;;;;;;;4873493;29;20166;-87
2021/09/05 08:46:21;;;;;;;2.33;1.15;;;15.10;99.90;;;;;;4877429;29;20227;-88
2021/09/05 08:48:49;;;;;;;1.55;1.15;;;15.00;99.90;;;;;;4869660;29;20190;-87
2021/09/05 08:51:15;;;;;;;1.35;1.13;;;14.90;99.90;;;;;;4889235;29;20191;-89
2021/09/05 08:53:41;;;;;;;2.95;1.30;;;14.70;99.90;;;;;;4870455;29;20237;-89
2021/09/05 08:56:07;;;;;;;1.85;1.20;;;14.60;99.90;;;;;;4867791;29;20555;-90
2021/09/05 08:58:33;;;;;;;2.38;1.10;;;14.70;99.90;;;;;;4864229;29;20253;-89
2021/09/05 09:01:14;;;;;;;3.00;1.10;;;14.60;99.90;;;;;;4862633;29;20544;-89
2021/09/05 09:03:39;;;;;;;1.60;1.20;;;16.60;99.90;;;;;;4879508;29;20185;-88
2021/09/05 09:06:05;;;;;;;2.08;0.90;;;14.90;99.90;;;;;;4863059;29;20188;-89
2021/09/05 09:08:31;;;;;;;2.15;1.42;;;15.10;99.90;;;;;;4847765;29;20249;-88
2021/09/05 09:11:04;;;;;;;1.75;1.30;;;15.50;99.90;;;;;;4863887;29;20250;-89
2021/09/05 09:13:37;;;;;;;5.45;1.20;;;15.80;99.90;;;;;;4880334;29;20193;-87
2021/09/05 09:16:11;;;;;;;2.00;1.27;;;15.40;99.90;;;;;;4880338;29;20188;-87
2021/09/05 09:18:39;;;;;;;5.75;1.10;;;15.50;99.90;;;;;;4877987;29;20272;-86
2021/09/05 09:21:08;;;;;;;4.47;1.27;;;15.50;99.90;;;;;;4881798;29;20173;-87
2021/09/05 09:23:36;;;;;;;2.97;1.15;;;15.50;99.90;;;;;;4878293;29;20193;-87
2021/09/05 09:26:07;;;;;;;1.48;1.00;;;15.40;99.90;;;;;;4877924;29;20214;-88
2021/09/05 09:28:44;;;;;;;2.67;1.10;;;15.40;99.90;;;;;;4863223;29;20224;-87
2021/09/05 09:31:23;;;;;;;1.70;1.20;;;15.60;99.90;;;;;;4879188;29;20186;-88
2021/09/05 09:33:54;;;;;;;2.22;1.35;;;15.70;99.90;;;;;;4881268;29;20193;-88
2021/09/05 09:36:28;;;;;;;1.83;1.20;;;15.70;99.90;;;;;;4867124;29;20186;-89
2021/09/05 09:38:58;;;;;;;3.22;1.05;;;15.80;99.90;;;;;;4881769;29;20181;-87
2021/09/05 09:41:30;;;;;;;1.90;1.35;;;15.90;99.90;;;;;;4881739;29;20178;-87
2021/09/05 09:44:03;;;;;;;4.22;1.42;;;16.10;99.90;;;;;;4865998;29;20191;-86
2021/09/05 09:46:31;;;;;;;1.15;0.98;;;16.40;99.90;;;;;;4866043;29;20182;-85
2021/09/05 09:48:59;;;;;;;3.95;1.67;;;16.60;99.90;;;;;;4881907;29;20207;-87
2021/09/05 09:51:25;;;;;;;3.22;1.20;;;16.30;99.90;;;;;;4881531;29;20242;-87
2021/09/05 09:53:52;;;;;;;2.38;1.38;;;16.40;99.90;;;;;;4865973;29;20237;-85
2021/09/05 09:56:20;;;;;;;2.70;1.30;;;16.70;99.90;;;;;;4874213;29;20201;-86
2021/09/05 09:58:48;;;;;;;2.25;1.48;;;17.00;99.90;;;;;;4866185;29;20285;-87
2021/09/05 10:01:24;;;;;;;4.50;1.10;;;16.90;99.90;;;;;;4863111;29;20178;-88
2021/09/05 10:03:55;;;;;;;2.65;1.20;;;16.80;99.90;;;;;;4851524;29;20178;-89
2021/09/05 10:06:32;;;;;;;2.17;1.17;;;16.50;99.90;;;;;;4874715;29;20240;-89
2021/09/05 10:09:05;;;;;;;2.28;1.40;;;16.00;99.90;;;;;;4875081;29;20185;-88
2021/09/05 10:11:34;;;;;;;2.75;1.42;;;16.00;99.90;;;;;;4865542;29;20179;-89
2021/09/05 10:14:00;;;;;;;3.70;0.98;;;15.30;99.90;;;;;;4848597;29;20550;-88
2021/09/05 10:16:27;;;;;;;1.42;0.90;;;15.60;99.90;;;;;;4847700;29;20201;-89
2021/09/05 10:18:55;;;;;;;3.28;1.10;;;15.70;99.90;;;;;;4847464;29;20675;-90
2021/09/05 10:21:22;;;;;;;2.75;1.13;;;16.00;99.90;;;;;;4869304;29;20274;-89
2021/09/05 10:23:54;;;;;;;5.13;1.48;;;16.40;99.90;;;;;;4873088;29;20310;-89
2021/09/05 10:26:21;;;;;;;1.42;1.05;;;16.80;99.90;;;;;;4873259;29;20681;-88
2021/09/05 10:28:55;;;;;;;1.52;1.13;;;16.30;99.50;;;;;;4880053;29;20190;-89
2021/09/05 10:31:28;;;;;;;1.70;1.13;;;17.30;98.40;;;;;;4865185;29;20222;-90
2021/09/05 10:33:54;;;;;;;1.45;0.98;;;17.20;99.00;;;;;;4880289;29;20189;-88
2021/09/05 10:36:25;;;;;;;1.77;1.00;;;17.10;97.80;;;;;;4881692;29;20186;-88
2021/09/05 10:38:52;;;;;;;1.35;0.98;;;15.80;97.00;;;;;;4880056;29;20213;-87
2021/09/05 10:41:21;;;;;;;2.53;1.20;;;17.00;98.00;;;;;;4880495;29;20186;-87
2021/09/05 10:43:59;;;;;;;1.40;1.02;;;17.10;98.00;;;;;;4881379;29;20181;-88
2021/09/05 10:46:51;;;;;;;1.67;1.30;;;17.40;99.90;;;;;;4881068;29;20174;-89
2021/09/05 10:49:36;;;;;;;2.00;1.10;;;17.80;97.80;;;;;;4880384;29;20194;-90
2021/09/05 10:52:02;;;;;;;1.98;1.20;;;17.20;95.70;;;;;;4882303;29;20190;-90
2021/09/05 10:54:28;;;;;;;2.75;1.05;;;16.80;97.00;;;;;;4885035;29;20309;-90
2021/09/05 10:56:58;;;;;;;0.88;0.70;;;16.50;97.90;;;;;;4884521;29;20185;-90
2021/09/05 10:59:26;;;;;;;1.88;1.15;;;16.50;98.50;;;;;;4884938;29;20234;-89
2021/09/05 11:01:51;;;;;;;1.05;0.93;;;16.80;98.40;;;;;;4883842;29;20186;-89
2021/09/05 11:04:18;;;;;;;1.55;1.08;;;17.20;96.90;;;;;;4865130;29;20190;-88
2021/09/05 11:06:45;;;;;;;2.58;0.95;;;17.60;94.80;;;;;;4872838;29;20206;-90
2021/09/05 11:09:21;;;;;;;1.50;0.90;;;17.90;91.80;;;;;;4872188;29;20217;-88
2021/09/05 11:11:55;;;;;;;1.75;0.95;;;16.20;90.40;;;;;;4877035;29;20185;-88
2021/09/05 11:14:37;;;;;;;1.20;0.93;;;17.10;91.10;;;;;;4851753;29;20197;-89
2021/09/05 11:17:10;;;;;;;1.20;0.90;;;17.20;94.00;;;;;;4845749;29;20369;-89
2021/09/05 11:19:43;;;;;;;0.95;0.70;;;17.60;93.00;;;;;;4861385;29;20193;-88
2021/09/05 11:22:11;;;;;;;1.80;1.10;;;17.70;91.40;;;;;;4870897;29;20175;-89
2021/09/05 11:24:37;;;;;;;1.25;1.08;;;18.00;92.70;;;;;;4865575;29;20209;-88
2021/09/05 11:27:15;;;;;;;1.10;0.80;;;18.30;90.20;;;;;;4871049;29;20271;-89
2021/09/05 11:29:41;;;;;;;1.98;0.98;;;18.40;90.50;;;;;;4879271;29;20182;-88
2021/09/05 11:32:11;;;;;;;1.63;1.02;;;18.20;90.90;;;;;;4853499;29;20721;-89
2021/09/05 11:34:37;;;;;;;1.17;1.00;;;17.70;90.10;;;;;;4870126;29;20214;-89
2021/09/05 11:37:04;;;;;;;1.20;0.80;;;17.70;91.10;;;;;;4869535;29;20249;-90
2021/09/05 11:39:32;;;;;;;2.97;0.80;;;17.70;90.30;;;;;;4873024;29;20186;-90
2021/09/05 11:42:02;;;;;;;1.42;1.17;;;17.40;90.90;;;;;;4868466;29;20186;-88
2021/09/05 11:44:37;;;;;;;2.83;1.33;;;17.10;90.40;;;;;;4854323;29;20206;-90
2021/09/05 11:47:23;;;;;;;1.38;0.80;;;17.10;91.40;;;;;;4855973;29;20197;-89
2021/09/05 11:49:52;;;;;;;1.50;1.00;;;17.00;91.40;;;;;;4870816;29;20616;-88
2021/09/05 11:52:29;;;;;;;1.40;0.90;;;17.00;90.00;;;;;;4869523;29;20220;-88
2021/09/05 11:55:11;;;;;;;1.52;0.93;;;17.10;91.20;;;;;;4861305;29;20637;-88
2021/09/05 11:57:50;;;;;;;2.05;0.77;;;17.10;88.80;;;;;;4865231;29;20189;-89
2021/09/05 12:00:31;;;;;;;1.63;0.90;;;17.10;90.00;;;;;;4871401;29;20194;-89
2021/09/05 12:02:59;;;;;;;0.90;0.70;;;17.40;90.00;;;;;;4882023;29;20190;-90
2021/09/05 12:05:26;;;;;;;1.88;1.00;;;17.60;91.00;;;;;;4880305;29;20180;-91
2021/09/05 12:07:52;;;;;;;1.30;0.98;;;17.80;88.70;;;;;;4876521;29;20213;-88
2021/09/05 12:10:21;;;;;;;5.10;1.27;;;17.90;88.20;;;;;;4853861;29;20190;-89
2021/09/05 12:13:06;;;;;;;1.38;0.95;;;17.80;88.60;;;;;;4883105;29;20233;-89
2021/09/05 12:15:43;;;;;;;1.90;0.85;;;17.20;88.60;;;;;;4872434;29;20201;-89
2021/09/05 12:18:17;;;;;;;0.82;0.70;;;17.50;88.80;;;;;;4887768;29;20189;-88
2021/09/05 12:20:44;;;;;;;4.97;0.90;;;17.50;86.90;;;;;;4886714;29;20178;-87
2021/09/05 12:23:21;;;;;;;0.95;0.90;;;17.50;88.50;;;;;;4887251;29;20182;-88
2021/09/05 12:25:46;;;;;;;1.45;1.10;;;17.70;88.80;;;;;;4892241;29;20190;-89
2021/09/05 12:28:20;;;;;;;2.03;0.77;;;17.90;89.70;;;;;;4873810;29;20214;-89
2021/09/05 12:31:00;;;;;;;5.30;1.13;;;18.10;89.70;;;;;;4892875;29;20166;-91
2021/09/05 12:33:26;;;;;;;1.27;1.15;;;18.30;88.60;;;;;;4892712;29;20288;-89
2021/09/05 12:35:53;;;;;;;1.55;1.38;;;18.30;88.10;;;;;;4873445;29;20537;-88
2021/09/05 12:38:30;;;;;;;0.90;0.70;;;17.90;88.30;;;;;;4883012;29;20190;-89
2021/09/05 12:41:11;;;;;;;2.85;0.95;;;17.60;87.50;;;;;;4880611;29;20272;-87
2021/09/05 12:43:48;;;;;;;2.75;0.70;;;17.60;86.00;;;;;;4853557;29;20748;-88
2021/09/05 12:46:15;;;;;;;2.17;1.42;;;17.70;87.30;;;;;;4881873;29;20174;-88
2021/09/05 12:48:44;;;;;;;1.40;0.93;;;17.80;86.40;;;;;;4872452;29;20208;-88
2021/09/05 12:51:15;;;;;;;0.93;0.55;;;16.40;83.80;;;;;;4868336;29;20269;-87
2021/09/05 12:53:58;;;;;;;1.48;1.08;;;18.10;83.60;;;;;;4879906;29;20230;-87
2021/09/05 12:56:25;;;;;;;2.13;1.42;;;18.40;81.70;;;;;;4849469;29;20190;-87
2021/09/05 12:58:51;;;;;;;1.08;0.70;;;18.60;83.30;;;;;;4878825;29;20640;-87
2021/09/05 13:01:34;;;;;;;3.08;2.00;;;18.90;80.70;;;;;;4865309;29;20201;-88
2021/09/05 13:04:02;;;;;;;2.75;1.00;;;19.30;81.10;;;;;;4849683;29;20187;-87
2021/09/05 13:06:29;;;;;;;1.23;0.90;;;19.50;83.00;;;;;;4881399;29;20179;-87
2021/09/05 13:08:55;;;;;;;4.25;1.30;;;19.90;83.40;;;;;;4870099;29;20182;-88
2021/09/05 13:11:24;;;;;;;1.67;0.80;;;20.10;81.20;;;;;;4874846;29;20184;-88
2021/09/05 13:13:51;;;;;;;1.27;0.90;;;20.10;78.60;;;;;;4862499;29;20627;-88
2021/09/05 13:16:17;;;;;;;1.10;1.00;;;20.10;80.20;;;;;;4878011;29;20545;-88
2021/09/05 13:18:44;;;;;;;3.85;2.47;;;20.50;81.20;;;;;;4879651;29;20683;-87
2021/09/05 13:21:12;;;;;;;7.50;1.80;;;20.70;81.10;;;;;;4881603;29;20206;-87